Terminal Aerodrome Forecast
Issued by NWS

Current Version | Previous Version | Text Only | Print | Product List | Glossary On
Versions: 1 2 3 4 5 6 7 8 9 10 11 12 13 14 15 16 17 18 19 20
632
FTUS41 KPBZ 212322
TAFDUJ
TAF
KDUJ 212322Z 2200/2224 22004KT P6SM VCTS BKN150CB
     FM220100 21004KT P6SM BKN200
     FM221400 22008KT P6SM BKN120
     FM221900 23012G20KT P6SM -SHRA VCTS BKN050CB
     FM222100 24011G19KT 5SM -SHRA VCTS OVC040CB=

USA.gov is the U.S. government's official web portal to all federal, state and local government web resources and services.